ADDS METAR Data INFO
IDs: Format: Raw Decoded Include TAF

Data at: 0900 UTC 20 Oct 2017

KAVK 200855Z AUTO 17009KT 10SM CLR 14/10 A2999 RMK AO2
KAVK 200835Z AUTO 17010KT 10SM CLR 14/10 A3000 RMK AO2
KAVK 200815Z AUTO 17011KT 10SM CLR A3000 RMK AO2
KAVK 200755Z AUTO 17012KT 10SM CLR 14/10 A3000 RMK AO2
KAVK 200735Z AUTO 17012KT 10SM CLR 14/10 A3001 RMK AO2
KAVK 200715Z AUTO 17012KT 10SM CLR 15/10 A3002 RMK AO2
KAVK 200655Z AUTO 17012KT 10SM CLR 15/10 A3002 RMK AO2
KAVK 200635Z AUTO 16011KT 10SM CLR 15/10 A3002 RMK AO2
KAVK 200615Z AUTO 16011KT 10SM CLR 15/10 A3002 RMK AO2
KAVK 200555Z AUTO 17012KT 10SM CLR 15/10 A3002 RMK AO2
KAVK 200535Z AUTO 17010KT 10SM CLR 16/10 A3003 RMK AO2
KAVK 200515Z AUTO 17010KT 10SM CLR 15/10 A3003 RMK AO2
KAVK 200455Z AUTO 17009KT 10SM FEW037 FEW043 14/10 A3004 RMK AO2
KAVK 200435Z AUTO 16008KT 10SM FEW028 SCT035 SCT042 15/10 A3004 RMK AO2
KAVK 200415Z AUTO 16009KT 10SM SCT032 BKN039 15/10 A3004 RMK AO2
KAVK 200355Z AUTO 16010KT 10SM SCT034 BKN040 15/10 A3005 RMK AO2
KAVK 200335Z AUTO 15009KT 10SM FEW034 FEW041 15/09 A3004 RMK AO2
KAVK 200315Z AUTO 15010KT 10SM CLR 15/09 A3004 RMK AO2
KAVK 200255Z AUTO 14010KT 10SM CLR 16/09 A3004 RMK AO2
KAVK 200235Z AUTO 14010KT 10SM CLR 15/09 A3004 RMK AO2
KAVK 200215Z AUTO 14010KT 10SM CLR 17/09 A3003 RMK AO2
KAVK 200155Z AUTO 15010KT 10SM CLR 16/09 A3003 RMK AO2
KAVK 200135Z AUTO 14008KT 10SM FEW043 17/10 A3003 RMK AO2
KAVK 200115Z AUTO 15006KT 10SM FEW044 17/10 A3003 RMK AO2
KAVK 200055Z AUTO 15008KT 10SM CLR 18/10 A3003 RMK AO2
KAVK 200035Z AUTO 16007KT 10SM CLR 20/10 A3002 RMK AO2
KAVK 200015Z AUTO 15009KT 10SM CLR 20/10 A3002 RMK AO2
KAVK 192355Z AUTO 16011KT 10SM CLR 22/10 A3001 RMK AO2
KAVK 192335Z AUTO 16014KT 10SM CLR 23/10 A3001 RMK AO2
KAVK 192315Z AUTO 16014KT 10SM CLR 23/09 A3001 RMK AO2
KAVK 192255Z AUTO 15009KT 10SM CLR 23/09 A3001 RMK AO2
KAVK 192235Z AUTO 15012KT 10SM CLR 24/09 A3002 RMK AO2
KAVK 192215Z AUTO 16015G20KT 10SM CLR 26/08 A3002 RMK AO2
KAVK 192155Z AUTO 17019KT 10SM CLR 27/08 A3001 RMK AO2
KAVK 192135Z AUTO 17014G21KT 10SM CLR 27/07 A3001 RMK AO2
KAVK 192115Z AUTO 16015KT 10SM CLR 27/07 A3001 RMK AO2
KAVK 192055Z AUTO 17014G20KT 10SM CLR 28/07 A3001 RMK AO2
KAVK 192035Z AUTO 18014KT 10SM CLR 27/08 A3001 RMK AO2
KAVK 192015Z AUTO 17010KT 10SM CLR 27/09 A3002 RMK AO2
KAVK 191955Z AUTO 16010G16KT 10SM CLR 25/09 A3003 RMK AO2
KAVK 191935Z AUTO 19014KT 10SM CLR 26/08 A3004 RMK AO2
KAVK 191915Z AUTO 17014KT 10SM CLR 26/09 A3004 RMK AO2
KAVK 191855Z AUTO 18016KT 10SM CLR 26/08 A3005 RMK AO2
KAVK 191835Z AUTO 17013KT 10SM CLR 25/08 A3006 RMK AO2
KAVK 191815Z AUTO 14008G13KT 10SM CLR 25/10 A3007 RMK AO2
KAVK 191755Z AUTO 18010KT 10SM CLR 24/10 A3008 RMK AO2
KAVK 191735Z AUTO 17010KT 10SM CLR 23/10 A3009 RMK AO2
KAVK 191715Z AUTO 18010G16KT 10SM CLR 22/09 A3010 RMK AO2
KAVK 191655Z AUTO 19011G17KT 10SM CLR 21/09 A3010 RMK AO2
KAVK 191635Z AUTO 19011KT 10SM CLR 20/08 A3011 RMK AO2
KAVK 191615Z AUTO 18005KT 10SM CLR 19/09 A3011 RMK AO2
KAVK 191555Z AUTO 18006KT 10SM CLR 18/09 A3011 RMK AO2
KAVK 191535Z AUTO 18007KT 10SM CLR 17/09 A3011 RMK AO2
KAVK 191515Z AUTO 16006KT 10SM CLR 17/09 A3011 RMK AO2
KAVK 191455Z AUTO 17004KT 10SM CLR 15/09 A3011 RMK AO2
KAVK 191435Z AUTO 16006KT 10SM CLR 15/09 A3011 RMK AO2
KAVK 191415Z AUTO 15004KT 10SM CLR 13/09 A3010 RMK AO2
KAVK 191355Z AUTO 15005KT 10SM CLR 12/08 A3009 RMK AO2
KAVK 191335Z AUTO 14004KT 10SM CLR 11/08 A3008 RMK AO2
KAVK 191315Z AUTO 14007KT 9SM CLR 11/08 A3007 RMK AO2
KAVK 191255Z AUTO 13007KT 10SM CLR 10/07 A3007 RMK AO2
KAVK 191235Z AUTO 12005KT 10SM CLR 10/07 A3007 RMK AO2
KAVK 191215Z AUTO 11004KT 10SM CLR 10/07 A3007 RMK AO2
KAVK 191155Z AUTO 09004KT 10SM CLR 10/08 A3007 RMK AO2
KAVK 191135Z AUTO 08005KT 10SM CLR 10/08 A3006 RMK AO2
KAVK 191115Z AUTO 08003KT 10SM FEW045 10/07 A3006 RMK AO2
KAVK 191055Z AUTO 10SM FEW043 FEW049 10/07 A3006 RMK AO2
KAVK 191035Z AUTO 10003KT 10SM CLR 12/08 A3005 RMK AO2
KAVK 191015Z AUTO 15004KT 10SM FEW050 12/08 A3005 RMK AO2
KAVK 190955Z AUTO 18004G10KT 10SM CLR 12/08 A3004 RMK AO2
KAVK 190935Z AUTO 18009KT 10SM CLR 12/08 A3004 RMK AO2
KAVK 190915Z AUTO 18008KT 10SM CLR 12/08 A3004 RMK AO2
KAVK 190855Z AUTO 18010KT 10SM FEW049 12/08 A3004 RMK AO2
KAVK 190835Z AUTO 18009KT 10SM CLR 12/08 A3005 RMK AO2
KAVK 190815Z AUTO 17006KT 10SM FEW055 13/08 A3005 RMK AO2
KAVK 190750Z AUTO 00000KT 10SM CLR 13/08 A3005 RMK AO2
KAVK 190735Z AUTO 17009KT 10SM CLR 12/08 A3005 RMK AO2
KAVK 190715Z AUTO 17009KT 10SM CLR 12/08 A3005 RMK AO2
KAVK 190655Z AUTO 17008KT 10SM CLR 13/08 A3005 RMK AO2
KAVK 190635Z AUTO 17006KT 10SM CLR 14/08 A3005 RMK AO2
KAVK 190615Z AUTO 16006KT 10SM CLR 15/08 A3005 RMK AO2
KAVK 190555Z AUTO 16004KT 10SM CLR 15/08 A3005 RMK AO2
KAVK 190535Z AUTO 16006KT 10SM CLR 14/08 A3005 RMK AO2
KAVK 190515Z AUTO 15005KT 10SM CLR 14/08 A3005 RMK AO2
KAVK 190455Z AUTO 18008KT 10SM CLR 14/08 A3005 RMK AO2
KAVK 190435Z AUTO 19009KT 10SM CLR 15/08 A3004 RMK AO2
KAVK 190415Z AUTO 18010KT 10SM CLR 16/08 A3004 RMK AO2
KAVK 190355Z AUTO 19009KT 10SM CLR 16/08 A3004 RMK AO2
KAVK 190335Z AUTO 18011KT 10SM CLR 17/08 A3004 RMK AO2
KAVK 190310Z AUTO 19009KT 10SM CLR 18/09 A3004 RMK AO2
KAVK 190255Z AUTO 19008KT 10SM CLR 18/09 A3003 RMK AO2
KAVK 190235Z AUTO 18011KT 10SM CLR 19/09 A3003 RMK AO2
KAVK 190210Z AUTO 19013KT 10SM CLR 19/09 A3002 RMK AO2
KAVK 190155Z AUTO 19010KT 10SM CLR 20/09 A3002 RMK AO2
KAVK 190135Z AUTO 18011KT 10SM CLR 20/09 A3002 RMK AO2
KAVK 190115Z AUTO 17010KT 10SM CLR 21/09 A3001 RMK AO2
KAVK 190055Z AUTO 16011KT 10SM CLR 21/09 A3001 RMK AO2
KAVK 190035Z AUTO 16011KT 10SM CLR 22/09 A3001 RMK AO2
KAVK 190015Z AUTO 15010KT 10SM CLR 22/09 A3001 RMK AO2
KAVK 182355Z AUTO 15008KT 10SM CLR 23/09 A3001 RMK AO2
KAVK 182335Z AUTO 16007KT 10SM CLR 24/09 A3000 RMK AO2
KAVK 182310Z AUTO 16010KT 10SM CLR 26/09 A2999 RMK AO2
KAVK 182255Z AUTO 17009KT 10SM CLR 27/09 A2998 RMK AO2
KAVK 182235Z AUTO 18012KT 10SM CLR 28/09 A2997 RMK AO2
KAVK 182215Z AUTO 18012KT 10SM CLR 28/09 A2997 RMK AO2
KAVK 182155Z AUTO 18011KT 10SM CLR 29/08 A2997 RMK AO2
KAVK 182135Z AUTO 19011KT 10SM CLR 29/08 A2998 RMK AO2
KAVK 182115Z AUTO 17009KT 10SM CLR 29/08 A2997 RMK AO2